createdAt,value
2023-06-18T00:02:40.460Z,93721.47
2023-06-18T00:07:43.397Z,93719.41
2023-06-18T00:12:44.968Z,93722.63
2023-06-18T00:17:46.594Z,93720.53
2023-06-18T00:22:50.602Z,93718.16
2023-06-18T00:27:52.292Z,93714.34
2023-06-18T00:32:53.974Z,93713.06
2023-06-18T00:37:56.963Z,93714.72
2023-06-18T00:42:59.268Z,93709.44
2023-06-18T00:48:01.321Z,93709.06
2023-06-18T00:53:04.348Z,93706.38
2023-06-18T00:58:05.980Z,93710.19
2023-06-18T01:03:12.366Z,93715.28
2023-06-18T01:08:16.441Z,93702.66
2023-06-18T01:13:18.083Z,93711.56
2023-06-18T01:18:19.935Z,93693.25
2023-06-18T01:23:28.246Z,93688.50
2023-06-18T01:28:30.007Z,93685.50
2023-06-18T01:33:32.233Z,93681.44
2023-06-18T01:38:43.706Z,93678.34
2023-06-18T01:43:49.103Z,93680.44
2023-06-18T01:48:54.899Z,93681.94
2023-06-18T01:54:00.395Z,93671.00
2023-06-18T01:59:03.032Z,93672.81
2023-06-18T02:04:04.955Z,93677.13
2023-06-18T02:09:07.930Z,93681.50
2023-06-18T02:14:09.517Z,93687.47
2023-06-18T02:19:11.174Z,93688.53
2023-06-18T02:24:15.490Z,93681.97
2023-06-18T02:29:17.127Z,93693.88
2023-06-18T02:34:18.807Z,93690.50
2023-06-18T02:39:22.757Z,93690.81
2023-06-18T02:44:24.295Z,93683.19
2023-06-18T02:49:25.893Z,93685.47
2023-06-18T02:54:28.886Z,93688.38
2023-06-18T02:59:30.495Z,93685.69
2023-06-18T03:04:32.112Z,93694.66
2023-06-18T03:09:35.162Z,93684.47
2023-06-18T03:14:36.802Z,93681.88
2023-06-18T03:19:43.677Z,93681.22
2023-06-18T03:24:46.664Z,93681.91
2023-06-18T03:29:48.316Z,93685.41
2023-06-18T03:34:50.006Z,93677.53
2023-06-18T03:39:52.974Z,93676.09
2023-06-18T03:44:55.152Z,93667.41
2023-06-18T03:49:56.888Z,93675.47
2023-06-18T03:54:59.902Z,93680.59
2023-06-18T04:00:01.935Z,93678.16
2023-06-18T04:05:03.730Z,93681.28
2023-06-18T04:10:07.641Z,93687.09
2023-06-18T04:15:10.148Z,93683.44
2023-06-18T04:20:13.349Z,93689.25
2023-06-18T04:25:16.672Z,93694.41
2023-06-18T04:30:18.917Z,93694.00
2023-06-18T04:35:20.479Z,93692.28
2023-06-18T04:40:23.825Z,93705.75
2023-06-18T04:45:25.642Z,93705.28
2023-06-18T04:50:27.247Z,93695.91
2023-06-18T04:55:30.259Z,93701.22
2023-06-18T05:00:32.062Z,93694.41
2023-06-18T05:05:33.715Z,93694.44
2023-06-18T05:10:36.937Z,93698.97
2023-06-18T05:15:38.839Z,93705.19
2023-06-18T05:20:40.461Z,93693.63
2023-06-18T05:25:43.538Z,93703.97
2023-06-18T05:30:45.152Z,93708.19
2023-06-18T05:35:46.798Z,93696.34
2023-06-18T05:40:49.789Z,93697.06
2023-06-18T05:45:51.494Z,93703.41
2023-06-18T05:50:53.146Z,93700.50
2023-06-18T05:55:56.064Z,93702.47
2023-06-18T06:00:57.714Z,93703.84
2023-06-18T06:05:59.350Z,93711.22
2023-06-18T06:11:02.321Z,93703.31
2023-06-18T06:16:04.202Z,93704.63
2023-06-18T06:21:05.784Z,93703.19
2023-06-18T06:26:08.970Z,93710.41
2023-06-18T06:31:10.611Z,93709.16
2023-06-18T06:36:12.249Z,93709.06
2023-06-18T06:41:15.229Z,93709.06
2023-06-18T06:46:16.813Z,93713.97
2023-06-18T06:51:18.469Z,93704.00
2023-06-18T07:01:23.406Z,93706.03
2023-06-18T07:06:25.325Z,93702.91
2023-06-18T07:11:28.329Z,93705.06
2023-06-18T07:16:30.146Z,93705.03
2023-06-18T07:21:31.768Z,93704.00
2023-06-18T07:26:34.779Z,93709.41
2023-06-18T07:31:36.453Z,93718.47
2023-06-18T07:36:38.256Z,93716.34
2023-06-18T07:41:41.230Z,93707.63
2023-06-18T07:46:43.111Z,93708.88
2023-06-18T07:51:44.889Z,93708.47
2023-06-18T07:56:47.927Z,93715.97
2023-06-18T08:01:50.209Z,93711.59
2023-06-18T08:06:51.948Z,93713.56
2023-06-18T08:11:55.002Z,93711.09
2023-06-18T08:16:56.630Z,93717.63
2023-06-18T08:21:58.282Z,93711.94
2023-06-18T08:27:01.503Z,93719.31
2023-06-18T08:32:03.126Z,93719.44
2023-06-18T08:37:05.537Z,93709.22
2023-06-18T08:42:08.918Z,93712.22
2023-06-18T08:47:10.673Z,93714.34
2023-06-18T08:52:15.032Z,93712.63
2023-06-18T08:57:31.992Z,93716.34
2023-06-18T09:02:33.544Z,93708.81
2023-06-18T09:07:36.593Z,93713.88
2023-06-18T09:12:40.431Z,93712.72
2023-06-18T09:17:49.654Z,93710.56
2023-06-18T09:22:51.455Z,93712.25
2023-06-18T09:27:56.710Z,93711.50
2023-06-18T09:32:58.719Z,93703.78
2023-06-18T09:38:08.799Z,93708.81
2023-06-18T09:43:12.577Z,93703.69
2023-06-18T09:48:14.374Z,93703.53
2023-06-18T09:53:17.915Z,93700.09
2023-06-18T09:58:39.510Z,93698.81
2023-06-18T10:03:42.311Z,93701.06
2023-06-18T10:08:47.151Z,93695.91
2023-06-18T10:13:51.578Z,93695.72
2023-06-18T10:19:01.463Z,93690.28
2023-06-18T10:24:10.450Z,93687.19
2023-06-18T10:29:13.854Z,93682.53
2023-06-18T10:34:16.028Z,93685.41
2023-06-18T10:39:24.909Z,93686.38
2023-06-18T10:44:48.686Z,93680.38
2023-06-18T10:50:13.146Z,93676.31
2023-06-18T10:55:30.447Z,93673.81
2023-06-18T11:00:35.883Z,93666.41
2023-06-18T11:05:45.096Z,93658.72
2023-06-18T11:10:48.194Z,93657.09
2023-06-18T11:15:58.836Z,93652.25
2023-06-18T11:21:01.898Z,93646.03
2023-06-18T11:26:03.605Z,93645.00
2023-06-18T11:31:06.631Z,93643.53
2023-06-18T11:36:10.221Z,93635.03
2023-06-18T11:41:11.866Z,93631.53
2023-06-18T11:46:31.701Z,93627.34
2023-06-18T11:51:33.575Z,93620.50
2023-06-18T11:56:35.303Z,93624.22
2023-06-18T12:01:38.252Z,93614.63
2023-06-18T12:06:39.919Z,93610.38
2023-06-18T12:11:58.506Z,93609.16
2023-06-18T12:17:07.719Z,93602.59
2023-06-18T12:22:09.473Z,93610.78
2023-06-18T12:27:11.193Z,93603.00
2023-06-18T12:32:15.249Z,93592.53
2023-06-18T12:37:16.847Z,93594.44
2023-06-18T12:42:21.445Z,93587.91
2023-06-18T12:47:24.486Z,93583.25
2023-06-18T12:52:27.292Z,93580.66
2023-06-18T12:57:29.125Z,93574.91
2023-06-18T13:02:32.131Z,93574.75
2023-06-18T13:07:33.885Z,93558.25
2023-06-18T13:12:35.679Z,93550.44
2023-06-18T13:17:38.877Z,93548.81
2023-06-18T13:22:40.857Z,93555.19
2023-06-18T13:27:42.510Z,93538.66
2023-06-18T13:32:45.610Z,93547.66
2023-06-18T13:37:47.267Z,93540.56
2023-06-18T13:42:48.853Z,93550.41
2023-06-18T13:47:51.826Z,93550.72
2023-06-18T13:52:53.564Z,93542.88
2023-06-18T13:57:55.229Z,93536.63
2023-06-18T14:02:58.357Z,93528.63
2023-06-18T14:08:00.042Z,93529.19
2023-06-18T14:13:01.629Z,93526.38
2023-06-18T14:18:04.889Z,93524.72
2023-06-18T14:23:06.510Z,93530.88
2023-06-18T14:28:08.122Z,93515.19
2023-06-18T14:33:11.133Z,93516.97
2023-06-18T14:38:12.771Z,93520.50
2023-06-18T14:43:14.412Z,93518.06
2023-06-18T14:48:17.316Z,93516.78
2023-06-18T14:53:18.923Z,93519.03
2023-06-18T14:58:20.589Z,93516.78
2023-06-18T15:03:23.765Z,93510.25
2023-06-18T15:08:25.488Z,93508.66
2023-06-18T15:13:27.141Z,93505.06
2023-06-18T15:18:30.215Z,93503.25
2023-06-18T15:23:31.798Z,93495.69
2023-06-18T15:28:33.386Z,93512.03
2023-06-18T15:33:36.386Z,93505.16
2023-06-18T15:38:38.056Z,93497.75
2023-06-18T15:43:39.640Z,93490.72
2023-06-18T15:48:42.674Z,93488.09
2023-06-18T15:53:44.309Z,93483.91
2023-06-18T15:58:46.004Z,93492.63
2023-06-18T16:03:50.081Z,93484.53
2023-06-18T16:08:51.680Z,93479.09
2023-06-18T16:13:53.585Z,93475.88
2023-06-18T16:18:56.978Z,93484.94
2023-06-18T16:23:58.543Z,93479.75
2023-06-18T16:29:00.209Z,93477.69
2023-06-18T16:34:03.142Z,93472.53
2023-06-18T16:39:04.786Z,93474.44
2023-06-18T16:44:06.351Z,93467.19
2023-06-18T16:49:09.366Z,93471.66
2023-06-18T16:54:11.048Z,93472.44
2023-06-18T16:59:12.611Z,93474.50
2023-06-18T17:04:15.624Z,93482.09
2023-06-18T17:09:17.229Z,93474.59
2023-06-18T17:14:18.812Z,93481.31
2023-06-18T17:19:21.806Z,93489.47
2023-06-18T17:24:23.371Z,93492.03
2023-06-18T17:29:25.062Z,93483.84
2023-06-18T17:34:28.001Z,93478.25
2023-06-18T17:39:29.918Z,93481.94
2023-06-18T17:44:31.599Z,93478.25
2023-06-18T17:49:34.548Z,93491.22
2023-06-18T17:54:36.209Z,93485.16
2023-06-18T17:59:37.774Z,93493.09
2023-06-18T18:04:40.702Z,93486.22
2023-06-18T18:09:42.338Z,93492.69
2023-06-18T18:14:43.997Z,93486.72
2023-06-18T18:19:46.953Z,93496.06
2023-06-18T18:24:48.608Z,93494.94
2023-06-18T18:29:50.196Z,93498.69
2023-06-18T18:34:53.112Z,93499.41
2023-06-18T18:39:54.891Z,93497.94
2023-06-18T18:44:56.445Z,93496.75
2023-06-18T18:49:59.347Z,93496.75
2023-06-18T18:55:00.923Z,93506.41
2023-06-18T19:00:02.610Z,93508.38
2023-06-18T19:05:06.725Z,93511.31
2023-06-18T19:10:09.102Z,93524.53
2023-06-18T19:15:11.653Z,93530.72
2023-06-18T19:20:14.705Z,93534.84
2023-06-18T19:25:16.373Z,93545.31
2023-06-18T19:30:18.072Z,93551.78
2023-06-18T19:35:21.117Z,93546.03
2023-06-18T19:40:22.989Z,93551.50
2023-06-18T19:45:24.825Z,93550.66
2023-06-18T19:50:27.849Z,93543.72
2023-06-18T19:55:29.405Z,93555.84
2023-06-18T20:00:31.102Z,93556.28
2023-06-18T20:05:34.129Z,93562.97
2023-06-18T20:10:35.731Z,93570.44
2023-06-18T20:15:37.335Z,93572.50
2023-06-18T20:20:40.603Z,93574.72
2023-06-18T20:25:42.171Z,93583.72
2023-06-18T20:30:43.765Z,93584.69
2023-06-18T20:35:46.701Z,93589.84
2023-06-18T20:40:48.262Z,93586.69
2023-06-18T20:45:49.964Z,93585.50
2023-06-18T20:50:53.072Z,93590.25
2023-06-18T20:55:55.614Z,93597.31
2023-06-18T21:00:58.849Z,93610.50
2023-06-18T21:06:01.826Z,93631.38
2023-06-18T21:11:03.399Z,93637.22
2023-06-18T21:16:05.220Z,93620.81
2023-06-18T21:21:08.221Z,93602.34
2023-06-18T21:26:10.023Z,93611.16
2023-06-18T21:31:12.246Z,93607.28
2023-06-18T21:36:15.434Z,93602.50
2023-06-18T21:41:16.997Z,93603.41
2023-06-18T21:46:18.614Z,93600.84
2023-06-18T21:51:21.714Z,93598.34
2023-06-18T21:56:23.320Z,93598.22
2023-06-18T22:01:25.064Z,93593.94
2023-06-18T22:06:28.067Z,93588.00
2023-06-18T22:11:29.681Z,93584.41
2023-06-18T22:16:31.357Z,93578.69
2023-06-18T22:21:34.460Z,93581.09
2023-06-18T22:26:36.644Z,93566.91
2023-06-18T22:31:38.370Z,93569.84
2023-06-18T22:36:41.412Z,93556.59
2023-06-18T22:41:43.029Z,93558.56
2023-06-18T22:46:44.635Z,93551.53
2023-06-18T22:51:54.448Z,93551.75
2023-06-18T22:56:56.118Z,93550.19
2023-06-18T23:01:57.698Z,93546.25
2023-06-18T23:07:00.648Z,93555.25
2023-06-18T23:12:02.261Z,93549.41
2023-06-18T23:17:04.385Z,93545.78
2023-06-18T23:22:08.212Z,93545.69
2023-06-18T23:27:09.940Z,93545.25
2023-06-18T23:32:11.560Z,93553.53
2023-06-18T23:37:14.573Z,93551.31
2023-06-18T23:42:16.166Z,93552.94
2023-06-18T23:47:17.824Z,93545.94
2023-06-18T23:52:20.737Z,93560.97
2023-06-18T23:57:22.331Z,93559.88
